sensor_id;sensor_type;location;lat;lon;timestamp;pressure;altitude;pressure_sealevel;temperature;humidity
44659;BME280;30378;50.186;8.644;2022-11-14T00:01:28;100607.19;;;-0.32;100.00
44659;BME280;30378;50.186;8.644;2022-11-14T00:04:13;100610.69;;;-0.25;100.00
44659;BME280;30378;50.186;8.644;2022-11-14T00:06:59;100612.84;;;-0.33;100.00
44659;BME280;30378;50.186;8.644;2022-11-14T00:09:45;100611.38;;;-0.36;100.00
44659;BME280;30378;50.186;8.644;2022-11-14T00:12:31;100600.63;;;-0.43;100.00
44659;BME280;30378;50.186;8.644;2022-11-14T00:15:17;100605.22;;;-0.43;100.00
44659;BME280;30378;50.186;8.644;2022-11-14T00:18:03;100597.97;;;-0.49;100.00
44659;BME280;30378;50.186;8.644;2022-11-14T00:20:50;100599.66;;;-0.55;100.00
44659;BME280;30378;50.186;8.644;2022-11-14T00:23:36;100602.78;;;-0.58;100.00
44659;BME280;30378;50.186;8.644;2022-11-14T00:26:21;100599.06;;;-0.64;100.00
44659;BME280;30378;50.186;8.644;2022-11-14T00:29:06;100592.47;;;-0.68;100.00
44659;BME280;30378;50.186;8.644;2022-11-14T00:31:52;100599.16;;;-0.77;100.00
44659;BME280;30378;50.186;8.644;2022-11-14T00:34:37;100591.91;;;-0.83;100.00
44659;BME280;30378;50.186;8.644;2022-11-14T00:37:23;100596.88;;;-0.80;100.00
44659;BME280;30378;50.186;8.644;2022-11-14T00:40:08;100593.38;;;-0.87;100.00
44659;BME280;30378;50.186;8.644;2022-11-14T00:42:54;100593.00;;;-0.91;100.00
44659;BME280;30378;50.186;8.644;2022-11-14T00:45:42;100597.13;;;-0.88;100.00
44659;BME280;30378;50.186;8.644;2022-11-14T00:48:28;100592.16;;;-0.91;100.00
44659;BME280;30378;50.186;8.644;2022-11-14T00:51:13;100585.91;;;-0.85;100.00
44659;BME280;30378;50.186;8.644;2022-11-14T00:53:58;100593.38;;;-0.87;100.00
44659;BME280;30378;50.186;8.644;2022-11-14T00:56:44;100600.81;;;-0.76;100.00
44659;BME280;30378;50.186;8.644;2022-11-14T00:59:29;100611.91;;;-0.52;100.00
44659;BME280;30378;50.186;8.644;2022-11-14T01:02:14;100608.34;;;-0.46;100.00
44659;BME280;30378;50.186;8.644;2022-11-14T01:05:00;100600.69;;;-0.49;100.00
44659;BME280;30378;50.186;8.644;2022-11-14T01:07:46;100596.56;;;-0.58;100.00
44659;BME280;30378;50.186;8.644;2022-11-14T01:10:31;100602.03;;;-0.33;100.00
44659;BME280;30378;50.186;8.644;2022-11-14T01:13:17;100602.25;;;-0.35;100.00
44659;BME280;30378;50.186;8.644;2022-11-14T01:16:03;100598.34;;;-0.46;100.00
44659;BME280;30378;50.186;8.644;2022-11-14T01:18:48;100588.63;;;-0.53;100.00
44659;BME280;30378;50.186;8.644;2022-11-14T01:21:34;100600.44;;;-0.41;100.00
44659;BME280;30378;50.186;8.644;2022-11-14T01:24:19;100592.59;;;-0.56;100.00
44659;BME280;30378;50.186;8.644;2022-11-14T01:27:05;100592.34;;;-0.16;100.00
44659;BME280;30378;50.186;8.644;2022-11-14T01:29:50;100592.94;;;-0.39;100.00
44659;BME280;30378;50.186;8.644;2022-11-14T01:32:36;100580.50;;;-0.15;100.00
44659;BME280;30378;50.186;8.644;2022-11-14T01:35:21;100589.78;;;-0.36;100.00
44659;BME280;30378;50.186;8.644;2022-11-14T01:38:11;100575.13;;;-0.53;100.00
44659;BME280;30378;50.186;8.644;2022-11-14T01:40:58;100570.03;;;-0.68;100.00
44659;BME280;30378;50.186;8.644;2022-11-14T01:43:44;100562.88;;;-0.88;100.00
44659;BME280;30378;50.186;8.644;2022-11-14T01:46:35;100557.72;;;-0.96;100.00
44659;BME280;30378;50.186;8.644;2022-11-14T01:49:25;100555.06;;;-1.03;100.00
44659;BME280;30378;50.186;8.644;2022-11-14T01:55:06;100542.19;;;-1.01;100.00
44659;BME280;30378;50.186;8.644;2022-11-14T01:57:53;100547.09;;;-0.84;100.00
44659;BME280;30378;50.186;8.644;2022-11-14T02:00:39;100543.94;;;-0.81;100.00
44659;BME280;30378;50.186;8.644;2022-11-14T02:03:24;100546.47;;;-0.86;100.00
44659;BME280;30378;50.186;8.644;2022-11-14T02:06:14;100542.56;;;-0.90;100.00
44659;BME280;30378;50.186;8.644;2022-11-14T02:09:03;100539.41;;;-0.87;100.00
44659;BME280;30378;50.186;8.644;2022-11-14T02:11:49;100537.78;;;-0.88;100.00
44659;BME280;30378;50.186;8.644;2022-11-14T02:14:37;100537.38;;;-0.92;100.00
44659;BME280;30378;50.186;8.644;2022-11-14T02:17:25;100527.19;;;-0.90;100.00
44659;BME280;30378;50.186;8.644;2022-11-14T02:20:23;100529.69;;;-0.95;100.00
44659;BME280;30378;50.186;8.644;2022-11-14T02:23:12;100526.25;;;-1.09;100.00
44659;BME280;30378;50.186;8.644;2022-11-14T02:25:59;100521.53;;;-1.20;100.00
44659;BME280;30378;50.186;8.644;2022-11-14T02:28:45;100519.03;;;-1.22;100.00
44659;BME280;30378;50.186;8.644;2022-11-14T02:31:30;100522.41;;;-1.26;100.00
44659;BME280;30378;50.186;8.644;2022-11-14T02:34:15;100512.63;;;-1.27;100.00
44659;BME280;30378;50.186;8.644;2022-11-14T02:37:04;100518.84;;;-1.27;100.00
44659;BME280;30378;50.186;8.644;2022-11-14T02:39:50;100504.78;;;-1.35;100.00
44659;BME280;30378;50.186;8.644;2022-11-14T02:42:35;100508.97;;;-1.40;100.00
44659;BME280;30378;50.186;8.644;2022-11-14T02:45:21;100510.84;;;-1.40;100.00
44659;BME280;30378;50.186;8.644;2022-11-14T02:48:07;100509.41;;;-1.49;100.00
44659;BME280;30378;50.186;8.644;2022-11-14T02:50:52;100513.13;;;-1.50;100.00
44659;BME280;30378;50.186;8.644;2022-11-14T02:53:38;100508.16;;;-1.47;100.00
44659;BME280;30378;50.186;8.644;2022-11-14T02:56:23;100505.66;;;-1.42;100.00
44659;BME280;30378;50.186;8.644;2022-11-14T02:59:09;100502.75;;;-1.47;100.00
44659;BME280;30378;50.186;8.644;2022-11-14T03:01:55;100499.69;;;-1.57;100.00
44659;BME280;30378;50.186;8.644;2022-11-14T03:04:40;100491.63;;;-1.64;100.00
44659;BME280;30378;50.186;8.644;2022-11-14T03:07:26;100492.44;;;-1.63;100.00
44659;BME280;30378;50.186;8.644;2022-11-14T03:10:11;100489.31;;;-1.60;100.00
44659;BME280;30378;50.186;8.644;2022-11-14T03:12:57;100484.34;;;-1.56;100.00
44659;BME280;30378;50.186;8.644;2022-11-14T03:15:43;100487.88;;;-1.56;100.00
44659;BME280;30378;50.186;8.644;2022-11-14T03:18:28;100491.56;;;-1.50;100.00
44659;BME280;30378;50.186;8.644;2022-11-14T03:21:16;100484.75;;;-1.53;100.00
44659;BME280;30378;50.186;8.644;2022-11-14T03:24:02;100486.22;;;-1.57;100.00
44659;BME280;30378;50.186;8.644;2022-11-14T03:26:48;100483.28;;;-1.49;100.00
44659;BME280;30378;50.186;8.644;2022-11-14T03:29:34;100474.94;;;-1.41;100.00
44659;BME280;30378;50.186;8.644;2022-11-14T03:32:19;100489.72;;;-1.50;100.00
44659;BME280;30378;50.186;8.644;2022-11-14T03:35:05;100492.38;;;-1.43;100.00
44659;BME280;30378;50.186;8.644;2022-11-14T03:37:51;100491.56;;;-1.44;100.00
44659;BME280;30378;50.186;8.644;2022-11-14T03:40:40;100488.66;;;-1.49;100.00
44659;BME280;30378;50.186;8.644;2022-11-14T03:43:28;100482.84;;;-1.46;100.00
44659;BME280;30378;50.186;8.644;2022-11-14T03:46:14;100483.63;;;-1.38;100.00
44659;BME280;30378;50.186;8.644;2022-11-14T03:48:59;100475.13;;;-1.35;100.00
44659;BME280;30378;50.186;8.644;2022-11-14T03:51:45;100486.06;;;-1.24;100.00
44659;BME280;30378;50.186;8.644;2022-11-14T03:54:30;100494.69;;;-1.02;100.00
44659;BME280;30378;50.186;8.644;2022-11-14T03:57:16;100494.28;;;-1.05;100.00
44659;BME280;30378;50.186;8.644;2022-11-14T04:00:02;100500.06;;;-1.02;100.00
44659;BME280;30378;50.186;8.644;2022-11-14T04:02:48;100493.34;;;-1.24;100.00
44659;BME280;30378;50.186;8.644;2022-11-14T04:05:33;100485.31;;;-1.37;100.00
44659;BME280;30378;50.186;8.644;2022-11-14T04:08:19;100480.38;;;-1.47;100.00
44659;BME280;30378;50.186;8.644;2022-11-14T04:11:04;100485.16;;;-1.49;100.00
44659;BME280;30378;50.186;8.644;2022-11-14T04:13:49;100487.63;;;-1.48;100.00
44659;BME280;30378;50.186;8.644;2022-11-14T04:16:35;100484.94;;;-1.48;100.00
44659;BME280;30378;50.186;8.644;2022-11-14T04:19:20;100480.38;;;-1.47;100.00
44659;BME280;30378;50.186;8.644;2022-11-14T04:22:06;100485.38;;;-1.57;100.00
44659;BME280;30378;50.186;8.644;2022-11-14T04:24:51;100482.69;;;-1.57;100.00
44659;BME280;30378;50.186;8.644;2022-11-14T04:27:37;100477.31;;;-1.57;100.00
44659;BME280;30378;50.186;8.644;2022-11-14T04:30:22;100465.91;;;-1.60;100.00
44659;BME280;30378;50.186;8.644;2022-11-14T04:33:08;100466.72;;;-1.59;100.00
44659;BME280;30378;50.186;8.644;2022-11-14T04:35:53;100463.22;;;-1.60;100.00
44659;BME280;30378;50.186;8.644;2022-11-14T04:38:39;100463.03;;;-1.78;100.00
44659;BME280;30378;50.186;8.644;2022-11-14T04:41:24;100470.75;;;-1.88;100.00
44659;BME280;30378;50.186;8.644;2022-11-14T04:44:09;100465.78;;;-1.85;100.00
44659;BME280;30378;50.186;8.644;2022-11-14T04:46:55;100470.34;;;-1.85;100.00
44659;BME280;30378;50.186;8.644;2022-11-14T04:49:41;100461.63;;;-1.94;100.00
44659;BME280;30378;50.186;8.644;2022-11-14T04:52:26;100470.34;;;-1.92;100.00
44659;BME280;30378;50.186;8.644;2022-11-14T04:55:12;100476.13;;;-1.82;100.00
44659;BME280;30378;50.186;8.644;2022-11-14T04:57:57;100486.28;;;-1.77;100.00
44659;BME280;30378;50.186;8.644;2022-11-14T05:00:42;100483.75;;;-1.65;100.00
44659;BME280;30378;50.186;8.644;2022-11-14T05:03:28;100477.47;;;-1.46;100.00
44659;BME280;30378;50.186;8.644;2022-11-14T05:06:13;100468.94;;;-1.36;100.00
44659;BME280;30378;50.186;8.644;2022-11-14T05:08:59;100479.63;;;-1.16;100.00
44659;BME280;30378;50.186;8.644;2022-11-14T05:11:45;100484.06;;;-0.96;100.00
44659;BME280;30378;50.186;8.644;2022-11-14T05:14:30;100473.44;;;-0.85;100.00
44659;BME280;30378;50.186;8.644;2022-11-14T05:17:15;100477.91;;;-0.72;100.00
44659;BME280;30378;50.186;8.644;2022-11-14T05:20:01;100479.69;;;-0.59;100.00
44659;BME280;30378;50.186;8.644;2022-11-14T05:22:46;100478.75;;;-0.46;100.00
44659;BME280;30378;50.186;8.644;2022-11-14T05:25:32;100481.50;;;-0.28;100.00
44659;BME280;30378;50.186;8.644;2022-11-14T05:28:17;100481.25;;;-0.19;100.00
44659;BME280;30378;50.186;8.644;2022-11-14T05:31:08;100476.59;;;-0.12;100.00
44659;BME280;30378;50.186;8.644;2022-11-14T05:33:53;100481.47;;;-0.03;100.00
44659;BME280;30378;50.186;8.644;2022-11-14T05:36:39;100478.13;;;0.02;100.00
44659;BME280;30378;50.186;8.644;2022-11-14T05:39:25;100480.06;;;0.13;100.00
44659;BME280;30378;50.186;8.644;2022-11-14T05:42:10;100483.75;;;0.19;100.00
44659;BME280;30378;50.186;8.644;2022-11-14T05:44:55;100479.50;;;0.30;100.00
44659;BME280;30378;50.186;8.644;2022-11-14T05:47:40;100483.31;;;0.41;100.00
44659;BME280;30378;50.186;8.644;2022-11-14T05:50:26;100484.44;;;0.51;100.00
44659;BME280;30378;50.186;8.644;2022-11-14T05:53:11;100499.00;;;0.69;100.00
44659;BME280;30378;50.186;8.644;2022-11-14T05:56:01;100498.47;;;0.78;100.00
44659;BME280;30378;50.186;8.644;2022-11-14T05:58:46;100503.19;;;1.02;100.00
44659;BME280;30378;50.186;8.644;2022-11-14T06:01:32;100513.84;;;1.15;100.00
44659;BME280;30378;50.186;8.644;2022-11-14T06:04:17;100510.53;;;1.13;100.00
44659;BME280;30378;50.186;8.644;2022-11-14T06:07:03;100504.88;;;1.14;100.00
44659;BME280;30378;50.186;8.644;2022-11-14T06:09:48;100510.66;;;1.18;100.00
44659;BME280;30378;50.186;8.644;2022-11-14T06:12:34;100516.44;;;1.22;100.00
44659;BME280;30378;50.186;8.644;2022-11-14T06:15:19;100511.41;;;1.25;100.00
44659;BME280;30378;50.186;8.644;2022-11-14T06:18:05;100524.22;;;1.30;100.00
44659;BME280;30378;50.186;8.644;2022-11-14T06:20:50;100525.19;;;1.35;100.00
44659;BME280;30378;50.186;8.644;2022-11-14T06:23:36;100524.75;;;1.38;100.00
44659;BME280;30378;50.186;8.644;2022-11-14T06:26:24;100521.78;;;1.40;100.00
44659;BME280;30378;50.186;8.644;2022-11-14T06:29:10;100528.75;;;1.48;100.00
44659;BME280;30378;50.186;8.644;2022-11-14T06:31:55;100524.53;;;1.52;100.00
44659;BME280;30378;50.186;8.644;2022-11-14T06:34:40;100529.16;;;1.63;100.00
44659;BME280;30378;50.186;8.644;2022-11-14T06:37:25;100535.31;;;1.70;100.00
44659;BME280;30378;50.186;8.644;2022-11-14T06:40:13;100532.25;;;1.78;100.00
44659;BME280;30378;50.186;8.644;2022-11-14T06:42:58;100535.69;;;1.86;100.00
44659;BME280;30378;50.186;8.644;2022-11-14T06:45:44;100522.03;;;1.92;100.00
44659;BME280;30378;50.186;8.644;2022-11-14T06:48:30;100526.50;;;1.98;100.00
44659;BME280;30378;50.186;8.644;2022-11-14T06:51:16;100524.16;;;2.02;100.00
44659;BME280;30378;50.186;8.644;2022-11-14T06:54:02;100520.50;;;2.08;100.00
44659;BME280;30378;50.186;8.644;2022-11-14T06:56:47;100502.00;;;2.17;100.00
44659;BME280;30378;50.186;8.644;2022-11-14T06:59:32;100492.81;;;2.30;100.00
44659;BME280;30378;50.186;8.644;2022-11-14T07:02:18;100516.25;;;2.88;100.00
44659;BME280;30378;50.186;8.644;2022-11-14T07:05:05;100522.03;;;3.32;100.00
44659;BME280;30378;50.186;8.644;2022-11-14T07:07:51;100533.75;;;3.50;100.00
44659;BME280;30378;50.186;8.644;2022-11-14T07:10:36;100526.81;;;3.59;100.00
44659;BME280;30378;50.186;8.644;2022-11-14T07:13:22;100517.13;;;3.63;100.00
44659;BME280;30378;50.186;8.644;2022-11-14T07:16:07;100520.50;;;3.70;100.00
44659;BME280;30378;50.186;8.644;2022-11-14T07:18:53;100512.19;;;3.77;100.00
44659;BME280;30378;50.186;8.644;2022-11-14T07:21:38;100503.88;;;3.84;100.00
44659;BME280;30378;50.186;8.644;2022-11-14T07:24:24;100404.19;;;3.89;100.00
44659;BME280;30378;50.186;8.644;2022-11-14T07:27:09;100393.38;;;3.94;100.00
44659;BME280;30378;50.186;8.644;2022-11-14T07:29:57;100399.72;;;4.00;100.00
44659;BME280;30378;50.186;8.644;2022-11-14T07:32:43;100411.50;;;4.06;100.00
44659;BME280;30378;50.186;8.644;2022-11-14T07:35:29;100415.34;;;4.10;100.00
44659;BME280;30378;50.186;8.644;2022-11-14T07:38:14;100419.97;;;4.09;100.00
44659;BME280;30378;50.186;8.644;2022-11-14T07:43:51;100416.25;;;4.15;100.00
44659;BME280;30378;50.186;8.644;2022-11-14T07:46:37;100419.53;;;4.17;100.00
44659;BME280;30378;50.186;8.644;2022-11-14T07:49:22;100424.97;;;4.17;100.00
44659;BME280;30378;50.186;8.644;2022-11-14T07:52:08;100411.50;;;4.28;100.00
44659;BME280;30378;50.186;8.644;2022-11-14T07:54:53;100431.19;;;4.35;100.00
44659;BME280;30378;50.186;8.644;2022-11-14T07:57:39;100437.38;;;4.30;100.00
44659;BME280;30378;50.186;8.644;2022-11-14T08:00:26;100449.91;;;4.31;100.00
44659;BME280;30378;50.186;8.644;2022-11-14T08:03:11;100437.25;;;4.42;100.00
44659;BME280;30378;50.186;8.644;2022-11-14T08:06:02;100438.03;;;4.60;100.00
44659;BME280;30378;50.186;8.644;2022-11-14T08:08:48;100449.44;;;4.56;100.00
44659;BME280;30378;50.186;8.644;2022-11-14T08:11:34;100444.00;;;4.56;100.00
44659;BME280;30378;50.186;8.644;2022-11-14T08:14:35;100446.44;;;4.58;100.00
44659;BME280;30378;50.186;8.644;2022-11-14T08:17:21;100448.34;;;4.57;100.00
44659;BME280;30378;50.186;8.644;2022-11-14T08:20:06;100449.56;;;4.67;100.00
44659;BME280;30378;50.186;8.644;2022-11-14T08:22:52;100419.53;;;4.62;100.00
44659;BME280;30378;50.186;8.644;2022-11-14T08:25:38;100416.88;;;4.67;100.00
44659;BME280;30378;50.186;8.644;2022-11-14T08:28:23;100407.06;;;4.66;100.00
44659;BME280;30378;50.186;8.644;2022-11-14T08:31:09;100407.44;;;4.74;100.00
44659;BME280;30378;50.186;8.644;2022-11-14T08:33:55;100404.50;;;4.81;100.00
44659;BME280;30378;50.186;8.644;2022-11-14T08:36:40;100405.06;;;4.83;100.00
44659;BME280;30378;50.186;8.644;2022-11-14T08:39:26;100407.44;;;4.74;100.00
44659;BME280;30378;50.186;8.644;2022-11-14T08:42:11;100393.13;;;4.84;100.00
44659;BME280;30378;50.186;8.644;2022-11-14T08:44:57;100391.56;;;4.93;100.00
44659;BME280;30378;50.186;8.644;2022-11-14T08:47:50;100383.78;;;5.07;100.00
44659;BME280;30378;50.186;8.644;2022-11-14T08:50:36;100369.66;;;5.10;100.00
44659;BME280;30378;50.186;8.644;2022-11-14T08:53:21;100361.28;;;5.17;100.00
44659;BME280;30378;50.186;8.644;2022-11-14T08:56:09;100369.50;;;5.22;100.00
44659;BME280;30378;50.186;8.644;2022-11-14T08:58:55;100365.66;;;5.18;100.00
44659;BME280;30378;50.186;8.644;2022-11-14T09:01:41;100370.88;;;5.25;100.00
44659;BME280;30378;50.186;8.644;2022-11-14T09:04:26;100373.81;;;5.18;100.00
44659;BME280;30378;50.186;8.644;2022-11-14T09:07:12;100370.88;;;5.25;100.00
44659;BME280;30378;50.186;8.644;2022-11-14T09:09:57;100373.41;;;5.31;100.00
44659;BME280;30378;50.186;8.644;2022-11-14T09:12:42;100376.88;;;5.27;100.00
44659;BME280;30378;50.186;8.644;2022-11-14T09:15:28;100388.66;;;5.32;100.00
44659;BME280;30378;50.186;8.644;2022-11-14T09:18:14;100400.13;;;5.34;100.00
44659;BME280;30378;50.186;8.644;2022-11-14T09:21:01;100382.22;;;5.44;100.00
44659;BME280;30378;50.186;8.644;2022-11-14T09:23:47;100377.56;;;5.44;100.00
44659;BME280;30378;50.186;8.644;2022-11-14T09:26:33;100367.03;;;5.53;100.00
44659;BME280;30378;50.186;8.644;2022-11-14T09:29:19;100365.63;;;5.50;100.00
44659;BME280;30378;50.186;8.644;2022-11-14T09:32:05;100352.84;;;5.56;100.00
44659;BME280;30378;50.186;8.644;2022-11-14T09:34:50;100328.78;;;5.85;100.00
44659;BME280;30378;50.186;8.644;2022-11-14T09:37:36;100315.09;;;6.43;100.00
44659;BME280;30378;50.186;8.644;2022-11-14T09:40:21;100354.97;;;6.49;100.00
44659;BME280;30378;50.186;8.644;2022-11-14T09:43:21;100347.03;;;6.38;100.00
44659;BME280;30378;50.186;8.644;2022-11-14T09:46:39;100337.72;;;6.28;100.00
44659;BME280;30378;50.186;8.644;2022-11-14T09:49:43;100328.78;;;6.48;100.00
44659;BME280;30378;50.186;8.644;2022-11-14T09:52:39;100321.97;;;6.46;100.00
44659;BME280;30378;50.186;8.644;2022-11-14T09:55:32;100322.09;;;6.08;100.00
44659;BME280;30378;50.186;8.644;2022-11-14T09:58:20;100326.50;;;6.14;100.00
44659;BME280;30378;50.186;8.644;2022-11-14T10:01:39;100314.47;;;6.10;100.00
44659;BME280;30378;50.186;8.644;2022-11-14T10:04:38;100312.84;;;6.20;100.00
44659;BME280;30378;50.186;8.644;2022-11-14T10:13:48;100273.13;;;6.80;100.00
44659;BME280;30378;50.186;8.644;2022-11-14T10:17:02;100273.66;;;7.03;100.00
44659;BME280;30378;50.186;8.644;2022-11-14T10:20:09;100259.94;;;7.44;100.00
44659;BME280;30378;50.186;8.644;2022-11-14T10:35:11;100198.47;;;8.41;100.00
44659;BME280;30378;50.186;8.644;2022-11-14T10:38:13;100172.56;;;10.97;100.00
44659;BME280;30378;50.186;8.644;2022-11-14T10:41:01;100152.63;;;11.19;100.00
44659;BME280;30378;50.186;8.644;2022-11-14T10:43:49;100150.88;;;11.09;100.00
44659;BME280;30378;50.186;8.644;2022-11-14T10:46:43;100144.66;;;10.89;100.00
44659;BME280;30378;50.186;8.644;2022-11-14T10:49:32;100146.91;;;10.17;100.00
44659;BME280;30378;50.186;8.644;2022-11-14T10:52:25;100140.56;;;10.02;100.00
44659;BME280;30378;50.186;8.644;2022-11-14T10:55:17;100121.91;;;9.61;100.00
44659;BME280;30378;50.186;8.644;2022-11-14T10:58:09;100115.03;;;9.40;100.00
44659;BME280;30378;50.186;8.644;2022-11-14T11:00:55;100125.66;;;8.74;100.00
44659;BME280;30378;50.186;8.644;2022-11-14T11:03:42;100104.94;;;8.63;100.00
44659;BME280;30378;50.186;8.644;2022-11-14T11:06:28;100102.56;;;8.80;100.00
44659;BME280;30378;50.186;8.644;2022-11-14T11:09:19;100108.13;;;8.99;100.00
44659;BME280;30378;50.186;8.644;2022-11-14T11:12:45;100105.69;;;8.98;100.00
44659;BME280;30378;50.186;8.644;2022-11-14T11:15:39;100106.16;;;9.05;100.00
44659;BME280;30378;50.186;8.644;2022-11-14T11:18:35;100098.06;;;9.19;100.00
44659;BME280;30378;50.186;8.644;2022-11-14T11:21:22;100086.25;;;9.61;100.00
44659;BME280;30378;50.186;8.644;2022-11-14T11:24:07;100087.03;;;9.43;100.00
44659;BME280;30378;50.186;8.644;2022-11-14T11:27:21;100083.69;;;10.22;100.00
44659;BME280;30378;50.186;8.644;2022-11-14T11:30:15;100091.09;;;10.40;100.00
44659;BME280;30378;50.186;8.644;2022-11-14T11:36:17;100080.22;;;10.35;100.00
44659;BME280;30378;50.186;8.644;2022-11-14T11:39:04;100074.28;;;10.75;100.00
44659;BME280;30378;50.186;8.644;2022-11-14T11:41:50;100067.31;;;10.49;100.00
44659;BME280;30378;50.186;8.644;2022-11-14T11:44:59;100066.59;;;9.92;100.00
44659;BME280;30378;50.186;8.644;2022-11-14T11:47:59;100050.19;;;9.87;100.00
44659;BME280;30378;50.186;8.644;2022-11-14T11:50:46;100046.38;;;11.09;100.00
44659;BME280;30378;50.186;8.644;2022-11-14T11:53:57;100054.28;;;11.52;100.00
44659;BME280;30378;50.186;8.644;2022-11-14T11:56:47;100044.38;;;10.87;100.00
44659;BME280;30378;50.186;8.644;2022-11-14T11:59:39;100044.94;;;10.70;100.00
44659;BME280;30378;50.186;8.644;2022-11-14T12:02:26;100038.38;;;10.05;100.00
44659;BME280;30378;50.186;8.644;2022-11-14T12:05:15;100028.69;;;9.94;100.00
44659;BME280;30378;50.186;8.644;2022-11-14T12:08:25;100047.28;;;9.97;100.00
44659;BME280;30378;50.186;8.644;2022-11-14T12:11:18;100056.91;;;10.13;100.00
44659;BME280;30378;50.186;8.644;2022-11-14T12:17:52;100049.59;;;10.42;100.00
44659;BME280;30378;50.186;8.644;2022-11-14T12:30:02;100042.94;;;11.67;100.00
44659;BME280;30378;50.186;8.644;2022-11-14T12:36:00;100039.88;;;10.77;100.00
44659;BME280;30378;50.186;8.644;2022-11-14T12:38:49;100037.16;;;10.30;100.00
44659;BME280;30378;50.186;8.644;2022-11-14T12:41:38;100027.53;;;10.47;100.00
44659;BME280;30378;50.186;8.644;2022-11-14T12:47:18;100027.94;;;10.07;100.00
44659;BME280;30378;50.186;8.644;2022-11-14T12:50:38;100027.72;;;9.85;100.00
44659;BME280;30378;50.186;8.644;2022-11-14T12:59:38;100010.28;;;9.95;100.00
44659;BME280;30378;50.186;8.644;2022-11-14T13:06:08;100006.72;;;9.94;100.00
44659;BME280;30378;50.186;8.644;2022-11-14T13:09:11;99993.00;;;9.94;100.00
44659;BME280;30378;50.186;8.644;2022-11-14T13:12:55;99992.25;;;9.88;100.00
44659;BME280;30378;50.186;8.644;2022-11-14T13:15:52;99983.81;;;9.85;100.00
44659;BME280;30378;50.186;8.644;2022-11-14T13:19:01;99992.16;;;9.80;100.00
44659;BME280;30378;50.186;8.644;2022-11-14T13:27:43;99975.53;;;9.71;100.00
44659;BME280;30378;50.186;8.644;2022-11-14T13:34:00;99980.09;;;9.62;100.00
44659;BME280;30378;50.186;8.644;2022-11-14T13:36:57;99973.25;;;9.59;100.00
44659;BME280;30378;50.186;8.644;2022-11-14T13:40:07;99977.53;;;9.65;100.00
44659;BME280;30378;50.186;8.644;2022-11-14T13:43:08;99963.16;;;9.73;100.00
44659;BME280;30378;50.186;8.644;2022-11-14T13:46:22;99962.78;;;9.80;100.00
44659;BME280;30378;50.186;8.644;2022-11-14T13:52:14;99959.81;;;9.58;100.00
44659;BME280;30378;50.186;8.644;2022-11-14T13:55:00;99958.59;;;9.50;100.00
44659;BME280;30378;50.186;8.644;2022-11-14T13:57:59;99958.78;;;9.53;100.00
44659;BME280;30378;50.186;8.644;2022-11-14T14:00:55;99953.63;;;9.52;100.00
44659;BME280;30378;50.186;8.644;2022-11-14T14:13:45;99948.03;;;9.57;100.00
44659;BME280;30378;50.186;8.644;2022-11-14T14:23:10;99945.41;;;9.52;100.00
44659;BME280;30378;50.186;8.644;2022-11-14T14:26:13;99933.97;;;9.45;100.00
44659;BME280;30378;50.186;8.644;2022-11-14T14:32:19;99934.28;;;9.43;100.00
44659;BME280;30378;50.186;8.644;2022-11-14T14:35:26;99949.84;;;9.48;100.00
44659;BME280;30378;50.186;8.644;2022-11-14T14:38:21;99941.00;;;9.51;100.00
44659;BME280;30378;50.186;8.644;2022-11-14T14:41:08;99937.59;;;9.59;100.00
44659;BME280;30378;50.186;8.644;2022-11-14T14:43:55;99937.50;;;9.64;100.00
44659;BME280;30378;50.186;8.644;2022-11-14T14:46:40;99934.53;;;9.80;100.00
44659;BME280;30378;50.186;8.644;2022-11-14T14:49:31;99933.31;;;9.86;100.00
44659;BME280;30378;50.186;8.644;2022-11-14T14:52:40;99932.69;;;9.89;100.00
44659;BME280;30378;50.186;8.644;2022-11-14T14:55:30;99924.34;;;9.80;100.00
44659;BME280;30378;50.186;8.644;2022-11-14T15:01:13;99919.41;;;9.63;100.00
44659;BME280;30378;50.186;8.644;2022-11-14T15:04:04;99918.69;;;9.58;100.00
44659;BME280;30378;50.186;8.644;2022-11-14T15:06:50;99915.56;;;9.64;100.00
44659;BME280;30378;50.186;8.644;2022-11-14T15:09:36;99912.91;;;9.59;100.00
44659;BME280;30378;50.186;8.644;2022-11-14T15:12:23;99906.59;;;9.59;100.00
44659;BME280;30378;50.186;8.644;2022-11-14T15:15:14;99902.75;;;9.60;100.00
44659;BME280;30378;50.186;8.644;2022-11-14T15:18:05;99913.63;;;9.65;100.00
44659;BME280;30378;50.186;8.644;2022-11-14T15:24:12;99907.22;;;9.69;100.00
44659;BME280;30378;50.186;8.644;2022-11-14T15:27:03;99907.03;;;9.66;100.00
44659;BME280;30378;50.186;8.644;2022-11-14T15:29:53;99901.44;;;9.71;100.00
44659;BME280;30378;50.186;8.644;2022-11-14T15:32:47;99900.25;;;9.77;100.00
44659;BME280;30378;50.186;8.644;2022-11-14T15:35:36;99904.72;;;9.73;100.00
44659;BME280;30378;50.186;8.644;2022-11-14T15:38:22;99900.75;;;9.79;100.00
44659;BME280;30378;50.186;8.644;2022-11-14T15:41:29;99904.41;;;9.75;100.00
44659;BME280;30378;50.186;8.644;2022-11-14T15:44:29;99907.06;;;9.80;100.00
44659;BME280;30378;50.186;8.644;2022-11-14T15:47:28;99902.19;;;9.77;100.00
44659;BME280;30378;50.186;8.644;2022-11-14T15:53:05;99909.34;;;9.91;100.00
44659;BME280;30378;50.186;8.644;2022-11-14T15:55:51;99911.16;;;9.96;100.00
44659;BME280;30378;50.186;8.644;2022-11-14T15:58:36;99909.53;;;9.95;100.00
44659;BME280;30378;50.186;8.644;2022-11-14T16:01:22;99914.00;;;9.91;100.00
44659;BME280;30378;50.186;8.644;2022-11-14T16:04:17;99914.91;;;9.86;100.00
44659;BME280;30378;50.186;8.644;2022-11-14T16:07:03;99914.50;;;9.93;100.00
44659;BME280;30378;50.186;8.644;2022-11-14T16:09:49;99914.00;;;9.91;100.00
44659;BME280;30378;50.186;8.644;2022-11-14T16:12:34;99912.59;;;9.93;100.00
44659;BME280;30378;50.186;8.644;2022-11-14T16:15:20;99917.34;;;9.88;100.00
44659;BME280;30378;50.186;8.644;2022-11-14T16:18:05;99921.31;;;9.82;100.00